Terminal Aerodrome Forecast
Issued by NWS

Home | Current Version | Previous Version | Graphics & Text | Print | Product List | Glossary On
Versions: 1 2 3 4 5 6 7 8 9 10 11 12 13 14 15 16 17 18
000
FTUS43 KICT 271120
TAFHUT
TAF
KHUT 271120Z 2712/2812 02017KT P6SM OVC008
     FM271300 02013KT P6SM OVC013
     FM271700 03005KT P6SM SCT035 OVC100
     FM272000 VRB03KT P6SM BKN100=

USA.gov is the U.S. government's official web portal to all federal, state and local government web resources and services.